createdAt,value
2023-02-25T00:01:31.696Z,96037.66
2023-02-25T00:03:34.354Z,96045.56
2023-02-25T00:05:39.829Z,96050.88
2023-02-25T00:07:42.435Z,96051.63
2023-02-25T00:09:45.098Z,96057.25
2023-02-25T00:11:48.017Z,96052.63
2023-02-25T00:13:51.978Z,96054.38
2023-02-25T00:15:54.797Z,96057.31
2023-02-25T00:17:57.373Z,96056.38
2023-02-25T00:20:00.754Z,96065.13
2023-02-25T00:22:03.292Z,96059.06
2023-02-25T00:24:15.967Z,96052.16
2023-02-25T00:26:19.826Z,96055.94
2023-02-25T00:28:22.595Z,96056.84
2023-02-25T00:30:26.887Z,96063.72
2023-02-25T00:32:29.619Z,96069.00
2023-02-25T00:34:32.273Z,96077.78
2023-02-25T00:36:34.867Z,96076.00
2023-02-25T00:38:37.775Z,96077.00
2023-02-25T00:40:41.637Z,96083.91
2023-02-25T00:42:44.364Z,96086.50
2023-02-25T00:44:48.316Z,96079.66
2023-02-25T00:46:52.360Z,96079.66
2023-02-25T00:48:55.346Z,96072.66
2023-02-25T00:50:57.911Z,96057.94
2023-02-25T00:53:00.499Z,96044.09
2023-02-25T00:55:03.516Z,96054.38
2023-02-25T00:57:06.316Z,96072.53
2023-02-25T00:59:08.874Z,96080.63
2023-02-25T01:01:19.215Z,96086.50
2023-02-25T01:03:23.561Z,96082.31
2023-02-25T01:05:26.336Z,96080.66
2023-02-25T01:07:28.941Z,96088.22
2023-02-25T01:09:31.504Z,96075.63
2023-02-25T01:11:37.135Z,96081.66
2023-02-25T01:13:39.764Z,96069.22
2023-02-25T01:15:42.547Z,96077.28
2023-02-25T01:17:45.138Z,96073.91
2023-02-25T01:19:49.438Z,96086.34
2023-02-25T01:21:54.744Z,96079.59
2023-02-25T01:23:59.506Z,96076.19
2023-02-25T01:26:04.541Z,96088.34
2023-02-25T01:28:07.160Z,96086.78
2023-02-25T01:30:11.686Z,96096.06
2023-02-25T01:32:15.510Z,96108.44
2023-02-25T01:34:18.908Z,96111.88
2023-02-25T01:36:23.119Z,96102.59
2023-02-25T01:38:25.915Z,96091.31
2023-02-25T01:40:28.555Z,96093.84
2023-02-25T01:42:31.199Z,96097.88
2023-02-25T01:44:35.420Z,96093.84
2023-02-25T01:46:39.001Z,96091.16
2023-02-25T01:48:42.040Z,96083.31
2023-02-25T01:50:49.959Z,96098.28
2023-02-25T01:52:58.055Z,96100.22
2023-02-25T01:55:00.756Z,96095.13
2023-02-25T01:57:06.878Z,96098.78
2023-02-25T01:59:10.341Z,96101.84
2023-02-25T02:01:16.651Z,96105.84
2023-02-25T02:03:19.217Z,96100.81
2023-02-25T02:05:25.607Z,96105.28
2023-02-25T02:07:28.316Z,96101.66
2023-02-25T02:09:32.511Z,96110.53
2023-02-25T02:11:35.096Z,96110.59
2023-02-25T02:13:42.241Z,96108.59
2023-02-25T02:15:53.301Z,96108.84
2023-02-25T02:18:00.381Z,96112.03
2023-02-25T02:20:14.123Z,96113.19
2023-02-25T02:22:22.743Z,96128.13
2023-02-25T02:25:07.497Z,96123.19
2023-02-25T02:27:15.296Z,96132.50
2023-02-25T02:29:49.126Z,96122.94
2023-02-25T02:32:01.390Z,96104.81
2023-02-25T02:34:17.615Z,96099.03
2023-02-25T02:36:28.385Z,96085.34
2023-02-25T02:38:36.421Z,96099.88
2023-02-25T02:40:45.559Z,96097.84
2023-02-25T02:42:58.468Z,96090.41
2023-02-25T02:45:05.874Z,96097.47
2023-02-25T02:47:14.735Z,96108.66
2023-02-25T02:49:22.851Z,96107.81
2023-02-25T02:51:31.395Z,96099.69
2023-02-25T02:53:38.592Z,96100.66
2023-02-25T02:55:44.729Z,96101.38
2023-02-25T02:57:47.395Z,96106.63
2023-02-25T02:59:55.385Z,96106.63
2023-02-25T03:02:06.474Z,96111.56
2023-02-25T03:04:15.038Z,96124.56
2023-02-25T03:06:22.838Z,96115.81
2023-02-25T03:08:31.088Z,96122.66
2023-02-25T03:10:34.668Z,96127.03
2023-02-25T03:12:38.815Z,96128.72
2023-02-25T03:14:41.783Z,96119.13
2023-02-25T03:16:49.864Z,96125.22
2023-02-25T03:18:57.908Z,96125.22
2023-02-25T03:21:07.028Z,96125.97
2023-02-25T03:23:15.226Z,96121.59
2023-02-25T03:25:21.233Z,96131.91
2023-02-25T03:27:27.246Z,96124.91
2023-02-25T03:29:29.887Z,96124.91
2023-02-25T03:31:38.667Z,96122.31
2023-02-25T03:33:47.888Z,96118.78
2023-02-25T03:35:53.234Z,96122.22
2023-02-25T03:38:03.231Z,96127.41
2023-02-25T03:40:11.926Z,96131.72
2023-02-25T03:42:19.643Z,96131.06
2023-02-25T03:44:26.766Z,96142.22
2023-02-25T03:46:31.157Z,96135.41
2023-02-25T03:48:36.188Z,96142.72
2023-02-25T03:50:45.046Z,96153.88
2023-02-25T03:52:47.721Z,96142.63
2023-02-25T03:54:52.715Z,96145.44
2023-02-25T03:56:55.380Z,96142.84
2023-02-25T03:58:57.954Z,96142.84
2023-02-25T04:01:03.469Z,96144.63
2023-02-25T04:03:06.550Z,96148.03
2023-02-25T04:05:10.438Z,96148.94
2023-02-25T04:07:13.071Z,96148.16
2023-02-25T04:09:15.776Z,96156.72
2023-02-25T04:11:19.646Z,96150.63
2023-02-25T04:13:23.647Z,96150.88
2023-02-25T04:15:27.630Z,96154.28
2023-02-25T04:17:30.420Z,96156.78
2023-02-25T04:19:33.030Z,96158.47
2023-02-25T04:21:37.714Z,96165.34
2023-02-25T04:23:40.257Z,96162.69
2023-02-25T04:25:43.004Z,96165.28
2023-02-25T04:27:46.968Z,96164.34
2023-02-25T04:29:49.542Z,96166.00
2023-02-25T04:31:52.188Z,96162.50
2023-02-25T04:33:57.210Z,96158.22
2023-02-25T04:35:59.806Z,96159.91
2023-02-25T04:38:02.359Z,96159.13
2023-02-25T04:40:11.978Z,96159.19
2023-02-25T04:42:14.516Z,96161.78
2023-02-25T04:44:18.427Z,96159.31
2023-02-25T04:46:21.284Z,96155.13
2023-02-25T04:48:24.440Z,96160.19
2023-02-25T04:50:27.433Z,96162.91
2023-02-25T04:52:30.043Z,96159.31
2023-02-25T04:54:32.595Z,96161.31
2023-02-25T04:56:35.150Z,96160.78
2023-02-25T04:58:38.662Z,96155.72
2023-02-25T05:00:49.254Z,96161.88
2023-02-25T05:02:52.409Z,96165.50
2023-02-25T05:04:55.059Z,96165.59
2023-02-25T05:06:57.644Z,96169.88
2023-02-25T05:09:00.603Z,96173.25
2023-02-25T05:11:04.172Z,96175.84
2023-02-25T05:13:06.735Z,96180.13
2023-02-25T05:15:10.696Z,96176.97
2023-02-25T05:17:15.828Z,96183.16
2023-02-25T05:19:19.779Z,96177.13
2023-02-25T05:21:25.054Z,96171.34
2023-02-25T05:23:27.796Z,96168.88
2023-02-25T05:25:30.373Z,96168.88
2023-02-25T05:27:33.059Z,96172.38
2023-02-25T05:29:35.819Z,96166.41
2023-02-25T05:31:38.765Z,96173.31
2023-02-25T05:33:42.745Z,96173.25
2023-02-25T05:35:45.434Z,96179.31
2023-02-25T05:37:48.394Z,96178.47
2023-02-25T05:39:50.975Z,96177.41
2023-02-25T05:41:53.557Z,96189.56
2023-02-25T05:43:56.832Z,96199.97
2023-02-25T05:46:01.554Z,96202.75
2023-02-25T05:48:04.403Z,96199.38
2023-02-25T05:50:09.626Z,96201.13
2023-02-25T05:52:12.505Z,96205.63
2023-02-25T05:54:15.080Z,96207.31
2023-02-25T05:56:21.657Z,96198.63
2023-02-25T05:58:24.626Z,96201.97
2023-02-25T06:00:27.257Z,96200.34
2023-02-25T06:02:29.788Z,96211.53
2023-02-25T06:04:32.385Z,96203.72
2023-02-25T06:06:36.434Z,96207.03
2023-02-25T06:08:39.039Z,96203.44
2023-02-25T06:10:42.204Z,96200.34
2023-02-25T06:12:46.535Z,96199.53
2023-02-25T06:14:49.193Z,96203.91
2023-02-25T06:16:56.664Z,96204.03
2023-02-25T06:19:00.016Z,96209.09
2023-02-25T06:21:05.532Z,96196.97
2023-02-25T06:23:09.510Z,96202.81
2023-02-25T06:25:14.458Z,96205.41
2023-02-25T06:27:17.752Z,96214.16
2023-02-25T06:29:20.579Z,96226.34
2023-02-25T06:31:25.077Z,96228.22
2023-02-25T06:33:30.750Z,96221.34
2023-02-25T06:35:36.082Z,96243.75
2023-02-25T06:37:38.770Z,96232.13
2023-02-25T06:39:43.529Z,96235.81
2023-02-25T06:41:46.254Z,96236.81
2023-02-25T06:43:52.058Z,96240.19
2023-02-25T06:45:55.346Z,96249.72
2023-02-25T06:47:58.662Z,96253.22
2023-02-25T06:50:02.583Z,96247.78
2023-02-25T06:52:05.416Z,96245.91
2023-02-25T06:54:07.969Z,96239.09
2023-02-25T06:56:13.795Z,96248.78
2023-02-25T06:58:17.881Z,96247.19
2023-02-25T07:00:20.996Z,96243.00
2023-02-25T07:02:23.608Z,96249.84
2023-02-25T07:04:26.249Z,96251.84
2023-02-25T07:06:28.808Z,96246.47
2023-02-25T07:08:32.017Z,96242.72
2023-02-25T07:10:35.738Z,96235.81
2023-02-25T07:12:39.642Z,96232.09
2023-02-25T07:14:42.235Z,96232.81
2023-02-25T07:16:44.840Z,96230.63
2023-02-25T07:18:47.796Z,96242.53
2023-02-25T07:20:50.379Z,96240.63
2023-02-25T07:22:53.047Z,96247.53
2023-02-25T07:24:55.634Z,96250.53
2023-02-25T07:26:58.408Z,96255.75
2023-02-25T07:29:02.766Z,96251.75
2023-02-25T07:31:12.239Z,96251.91
2023-02-25T07:33:14.965Z,96257.53
2023-02-25T07:35:17.783Z,96255.53
2023-02-25T07:37:20.359Z,96257.78
2023-02-25T07:39:23.257Z,96254.50
2023-02-25T07:41:25.885Z,96262.56
2023-02-25T07:43:28.465Z,96263.53
2023-02-25T07:45:32.368Z,96260.91
2023-02-25T07:47:34.970Z,96265.25
2023-02-25T07:49:37.608Z,96266.97
2023-02-25T07:51:40.162Z,96263.69
2023-02-25T07:53:42.697Z,96267.38
2023-02-25T07:55:45.765Z,96267.88
2023-02-25T07:57:48.369Z,96265.06
2023-02-25T07:59:50.917Z,96250.78
2023-02-25T08:01:54.839Z,96250.31
2023-02-25T08:03:59.093Z,96247.84
2023-02-25T08:06:02.779Z,96245.53
2023-02-25T08:08:06.313Z,96242.09
2023-02-25T08:10:09.992Z,96239.50
2023-02-25T08:12:12.527Z,96240.28
2023-02-25T08:14:15.197Z,96250.16
2023-02-25T08:16:20.098Z,96252.03
2023-02-25T08:18:24.092Z,96245.72
2023-02-25T08:20:26.703Z,96248.47
2023-02-25T08:22:29.266Z,96243.41
2023-02-25T08:24:32.942Z,96239.97
2023-02-25T08:26:35.758Z,96243.03
2023-02-25T08:28:39.632Z,96243.81
2023-02-25T08:30:42.283Z,96243.31
2023-02-25T08:32:44.999Z,96239.16
2023-02-25T08:34:51.877Z,96246.78
2023-02-25T08:36:54.546Z,96248.50
2023-02-25T08:38:58.338Z,96247.94
2023-02-25T08:41:01.136Z,96255.88
2023-02-25T08:43:03.718Z,96249.00
2023-02-25T08:45:07.058Z,96263.63
2023-02-25T08:47:09.603Z,96256.34
2023-02-25T08:49:12.180Z,96251.03
2023-02-25T08:51:16.115Z,96258.84
2023-02-25T08:53:19.283Z,96256.38
2023-02-25T08:55:24.688Z,96266.00
2023-02-25T08:57:27.457Z,96267.69
2023-02-25T08:59:35.763Z,96265.00
2023-02-25T09:01:49.004Z,96263.22
2023-02-25T09:03:58.451Z,96265.44
2023-02-25T09:06:00.996Z,96266.25
2023-02-25T09:08:05.831Z,96269.00
2023-02-25T09:10:10.193Z,96262.41
2023-02-25T09:12:12.881Z,96259.53
2023-02-25T09:14:16.361Z,96260.19
2023-02-25T09:16:20.137Z,96263.66
2023-02-25T09:18:22.945Z,96257.75
2023-02-25T09:20:25.900Z,96268.91
2023-02-25T09:22:28.792Z,96262.84
2023-02-25T09:24:33.389Z,96261.13
2023-02-25T09:26:36.650Z,96259.47
2023-02-25T09:28:39.266Z,96265.22
2023-02-25T09:30:41.986Z,96274.22
2023-02-25T09:32:45.406Z,96269.59
2023-02-25T09:34:49.218Z,96265.47
2023-02-25T09:36:51.771Z,96256.06
2023-02-25T09:38:54.411Z,96255.09
2023-02-25T09:40:58.714Z,96262.06
2023-02-25T09:43:08.730Z,96255.22
2023-02-25T09:45:17.976Z,96258.41
2023-02-25T09:47:26.297Z,96254.84
2023-02-25T09:49:32.917Z,96253.25
2023-02-25T09:51:39.025Z,96262.78
2023-02-25T09:53:47.747Z,96259.34
2023-02-25T09:55:53.075Z,96254.81
2023-02-25T09:58:05.804Z,96250.31
2023-02-25T10:00:21.442Z,96247.28
2023-02-25T10:02:31.771Z,96254.16
2023-02-25T10:04:40.647Z,96248.66
2023-02-25T10:06:47.069Z,96250.56
2023-02-25T10:08:56.169Z,96239.91
2023-02-25T10:11:07.135Z,96241.94
2023-02-25T10:13:23.877Z,96240.50
2023-02-25T10:15:36.854Z,96243.00
2023-02-25T10:17:49.045Z,96240.44
2023-02-25T10:20:10.465Z,96239.31
2023-02-25T10:22:27.199Z,96235.00
2023-02-25T10:24:35.728Z,96241.84
2023-02-25T10:26:43.315Z,96232.91
2023-02-25T10:28:50.940Z,96228.50
2023-02-25T10:31:00.117Z,96227.78
2023-02-25T10:33:05.874Z,96227.22
2023-02-25T10:35:17.598Z,96230.66
2023-02-25T10:37:23.672Z,96231.47
2023-02-25T10:39:28.411Z,96226.56
2023-02-25T10:41:31.078Z,96222.31
2023-02-25T10:43:35.898Z,96224.19
2023-02-25T10:45:41.333Z,96226.34
2023-02-25T10:47:48.373Z,96224.38
2023-02-25T10:50:14.703Z,96221.19
2023-02-25T10:52:19.943Z,96228.81
2023-02-25T10:54:24.483Z,96223.06
2023-02-25T10:56:29.617Z,96213.78
2023-02-25T10:58:36.737Z,96225.53
2023-02-25T11:00:44.296Z,96209.97
2023-02-25T11:02:52.105Z,96212.53
2023-02-25T11:04:56.319Z,96209.22
2023-02-25T11:06:58.891Z,96211.03
2023-02-25T11:09:03.035Z,96210.22
2023-02-25T11:11:14.444Z,96204.06
2023-02-25T11:13:29.736Z,96209.84
2023-02-25T11:15:44.871Z,96205.78
2023-02-25T11:17:50.285Z,96214.53
2023-02-25T11:20:00.611Z,96209.75
2023-02-25T11:22:10.164Z,96211.84
2023-02-25T11:24:17.298Z,96206.84
2023-02-25T11:26:30.266Z,96213.53
2023-02-25T11:28:37.950Z,96211.97
2023-02-25T11:30:41.692Z,96213.53
2023-02-25T11:32:47.053Z,96222.16
2023-02-25T11:34:54.280Z,96211.03
2023-02-25T11:36:59.868Z,96210.06
2023-02-25T11:39:17.595Z,96216.88
2023-02-25T11:41:23.240Z,96209.91
2023-02-25T11:43:28.029Z,96208.16
2023-02-25T11:45:32.151Z,96202.19
2023-02-25T11:47:38.641Z,96201.78
2023-02-25T11:50:04.982Z,96197.75
2023-02-25T11:52:15.030Z,96193.19
2023-02-25T11:54:26.994Z,96189.84
2023-02-25T11:56:32.657Z,96187.13
2023-02-25T11:58:48.828Z,96200.94
2023-02-25T12:00:59.297Z,96197.81
2023-02-25T12:03:25.255Z,96194.75
2023-02-25T12:05:45.120Z,96192.97
2023-02-25T12:08:13.446Z,96192.41
2023-02-25T12:10:42.694Z,96196.78
2023-02-25T12:13:16.489Z,96193.81
2023-02-25T12:15:56.712Z,96182.75
2023-02-25T12:18:52.585Z,96198.28
2023-02-25T12:21:28.558Z,96199.25
2023-02-25T12:23:59.310Z,96193.81
2023-02-25T12:26:09.532Z,96195.16
2023-02-25T12:28:40.901Z,96177.16
2023-02-25T12:31:01.304Z,96170.56
2023-02-25T12:33:14.500Z,96177.69
2023-02-25T12:35:40.191Z,96188.16
2023-02-25T12:37:59.347Z,96187.56
2023-02-25T12:40:20.000Z,96188.28
2023-02-25T12:42:38.009Z,96195.09
2023-02-25T12:45:07.675Z,96192.88
2023-02-25T12:47:26.446Z,96189.34
2023-02-25T12:50:10.549Z,96188.03
2023-02-25T12:52:24.150Z,96184.91
2023-02-25T12:54:56.276Z,96194.78
2023-02-25T12:57:08.625Z,96196.72
2023-02-25T12:59:26.398Z,96184.13
2023-02-25T13:01:48.157Z,96190.50
2023-02-25T13:04:19.303Z,96189.50
2023-02-25T13:06:48.646Z,96184.38
2023-02-25T13:09:20.710Z,96186.59
2023-02-25T13:11:42.179Z,96185.69
2023-02-25T13:14:25.090Z,96194.56
2023-02-25T13:16:43.588Z,96186.00
2023-02-25T13:18:58.899Z,96181.75
2023-02-25T13:21:18.149Z,96178.38
2023-02-25T13:23:35.823Z,96168.75
2023-02-25T13:25:59.690Z,96159.69
2023-02-25T13:28:18.206Z,96167.69
2023-02-25T13:30:36.077Z,96164.16
2023-02-25T13:32:48.469Z,96175.56
2023-02-25T13:35:02.235Z,96154.91
2023-02-25T13:37:22.402Z,96163.66
2023-02-25T13:39:47.809Z,96154.38
2023-02-25T13:42:11.120Z,96156.72
2023-02-25T13:44:52.230Z,96150.47
2023-02-25T13:47:08.505Z,96161.91
2023-02-25T13:49:31.649Z,96154.19
2023-02-25T13:52:09.910Z,96153.63
2023-02-25T13:54:39.944Z,96156.72
2023-02-25T13:57:00.017Z,96152.50
2023-02-25T13:59:18.140Z,96158.47
2023-02-25T14:01:34.259Z,96154.13
2023-02-25T14:04:03.578Z,96158.03
2023-02-25T14:06:21.724Z,96161.16
2023-02-25T14:08:40.764Z,96165.69
2023-02-25T14:10:54.279Z,96168.69
2023-02-25T14:13:15.457Z,96172.25
2023-02-25T14:15:45.788Z,96179.34
2023-02-25T14:17:58.472Z,96174.50
2023-02-25T14:20:15.764Z,96176.31
2023-02-25T14:22:29.855Z,96180.75
2023-02-25T14:24:38.550Z,96189.47
2023-02-25T14:26:53.548Z,96197.22
2023-02-25T14:29:09.205Z,96195.75
2023-02-25T14:31:21.570Z,96192.94
2023-02-25T14:33:43.040Z,96194.28
2023-02-25T14:36:05.232Z,96189.31
2023-02-25T14:38:10.695Z,96204.03
2023-02-25T14:40:32.249Z,96205.56
2023-02-25T14:42:56.577Z,96193.06
2023-02-25T14:45:03.125Z,96192.81
2023-02-25T14:47:11.306Z,96192.13
2023-02-25T14:49:21.763Z,96199.22
2023-02-25T14:52:07.156Z,96188.53
2023-02-25T14:54:38.916Z,96198.28
2023-02-25T14:57:04.920Z,96188.88
2023-02-25T14:59:39.904Z,96197.94
2023-02-25T15:02:04.026Z,96199.88
2023-02-25T15:04:21.051Z,96198.53
2023-02-25T15:06:38.246Z,96202.25
2023-02-25T15:08:59.747Z,96201.47
2023-02-25T15:11:39.941Z,96208.47
2023-02-25T15:14:11.098Z,96209.22
2023-02-25T15:16:46.931Z,96203.19
2023-02-25T15:19:21.474Z,96200.47
2023-02-25T15:21:38.123Z,96194.34
2023-02-25T15:23:51.903Z,96207.69
2023-02-25T15:26:22.394Z,96203.09
2023-02-25T15:28:42.250Z,96207.63
2023-02-25T15:31:34.218Z,96209.59
2023-02-25T15:33:39.097Z,96212.25
2023-02-25T15:35:57.899Z,96215.44
2023-02-25T15:38:09.115Z,96208.38
2023-02-25T15:40:46.120Z,96217.38
2023-02-25T15:42:50.888Z,96224.84
2023-02-25T15:44:54.010Z,96221.97
2023-02-25T15:47:18.993Z,96226.00
2023-02-25T15:49:31.410Z,96224.44
2023-02-25T15:51:44.218Z,96233.22
2023-02-25T15:53:49.107Z,96226.84
2023-02-25T15:55:53.414Z,96224.44
2023-02-25T15:57:56.040Z,96218.41
2023-02-25T15:59:58.631Z,96219.72
2023-02-25T16:02:01.323Z,96217.03
2023-02-25T16:04:31.458Z,96218.47
2023-02-25T16:06:41.681Z,96218.47
2023-02-25T16:08:53.208Z,96219.97
2023-02-25T16:10:57.301Z,96217.75
2023-02-25T16:13:01.620Z,96217.66
2023-02-25T16:15:05.747Z,96221.25
2023-02-25T16:17:16.542Z,96219.38
2023-02-25T16:19:22.354Z,96222.31
2023-02-25T16:21:32.749Z,96219.25
2023-02-25T16:23:41.497Z,96228.88
2023-02-25T16:25:52.930Z,96227.38
2023-02-25T16:28:02.304Z,96229.84
2023-02-25T16:30:13.995Z,96234.78
2023-02-25T16:32:27.532Z,96235.25
2023-02-25T16:34:36.013Z,96241.56
2023-02-25T16:36:47.648Z,96241.13
2023-02-25T16:38:57.980Z,96246.00
2023-02-25T16:41:02.533Z,96248.66
2023-02-25T16:43:06.314Z,96252.50
2023-02-25T16:45:10.093Z,96250.38
2023-02-25T16:47:23.558Z,96257.97
2023-02-25T16:49:31.885Z,96257.84
2023-02-25T16:51:38.216Z,96262.63
2023-02-25T16:53:44.709Z,96262.19
2023-02-25T16:55:48.621Z,96264.59
2023-02-25T16:58:07.296Z,96266.47
2023-02-25T17:00:19.257Z,96271.28
2023-02-25T17:02:25.442Z,96271.53
2023-02-25T17:04:30.889Z,96276.66
2023-02-25T17:06:33.495Z,96283.69
2023-02-25T17:08:36.714Z,96285.41
2023-02-25T17:10:46.168Z,96289.03
2023-02-25T17:12:48.842Z,96298.59
2023-02-25T17:14:54.104Z,96302.41
2023-02-25T17:16:56.797Z,96304.56
2023-02-25T17:19:03.930Z,96308.94
2023-02-25T17:21:15.809Z,96313.25
2023-02-25T17:23:18.571Z,96316.09
2023-02-25T17:25:23.743Z,96314.41
2023-02-25T17:27:26.712Z,96313.50
2023-02-25T17:29:35.735Z,96312.75
2023-02-25T17:31:44.815Z,96317.06
2023-02-25T17:33:49.318Z,96322.13
2023-02-25T17:35:54.495Z,96323.09
2023-02-25T17:37:58.081Z,96323.03
2023-02-25T17:40:02.023Z,96326.56
2023-02-25T17:42:24.871Z,96325.69
2023-02-25T17:44:47.219Z,96323.97
2023-02-25T17:46:52.628Z,96331.69
2023-02-25T17:48:58.065Z,96328.22
2023-02-25T17:51:02.520Z,96320.44
2023-02-25T17:53:05.320Z,96323.09
2023-02-25T17:55:24.093Z,96333.44
2023-02-25T17:57:28.852Z,96332.53
2023-02-25T17:59:39.258Z,96343.81
2023-02-25T18:01:54.326Z,96355.97
2023-02-25T18:03:59.864Z,96343.97
2023-02-25T18:06:05.591Z,96340.47
2023-02-25T18:08:17.587Z,96342.31
2023-02-25T18:10:43.956Z,96348.34
2023-02-25T18:12:49.181Z,96349.22
2023-02-25T18:14:55.650Z,96355.22
2023-02-25T18:16:59.277Z,96358.69
2023-02-25T18:19:03.611Z,96352.66
2023-02-25T18:21:08.633Z,96351.03
2023-02-25T18:23:20.986Z,96370.94
2023-02-25T18:25:32.415Z,96384.97
2023-02-25T18:27:37.659Z,96387.66
2023-02-25T18:29:40.387Z,96391.31
2023-02-25T18:31:43.941Z,96390.63
2023-02-25T18:33:47.252Z,96395.78
2023-02-25T18:35:51.251Z,96406.63
2023-02-25T18:37:56.454Z,96402.69
2023-02-25T18:39:59.149Z,96409.75
2023-02-25T18:42:01.703Z,96409.78
2023-02-25T18:44:06.357Z,96409.19
2023-02-25T18:46:09.274Z,96410.19
2023-02-25T18:48:12.432Z,96414.50
2023-02-25T18:50:15.827Z,96406.03
2023-02-25T18:52:22.637Z,96404.22
2023-02-25T18:54:25.210Z,96412.81
2023-02-25T18:56:27.834Z,96427.63
2023-02-25T18:58:30.396Z,96427.72
2023-02-25T19:00:32.971Z,96428.63
2023-02-25T19:02:37.800Z,96431.22
2023-02-25T19:04:40.462Z,96425.28
2023-02-25T19:06:43.113Z,96433.06
2023-02-25T19:08:47.052Z,96430.50
2023-02-25T19:10:50.128Z,96427.09
2023-02-25T19:12:59.744Z,96428.06
2023-02-25T19:15:06.049Z,96433.22
2023-02-25T19:17:11.330Z,96427.28
2023-02-25T19:19:14.124Z,96419.59
2023-02-25T19:21:18.818Z,96430.84
2023-02-25T19:23:21.439Z,96427.53
2023-02-25T19:25:27.742Z,96432.59
2023-02-25T19:27:31.341Z,96436.13
2023-02-25T19:29:33.921Z,96435.31
2023-02-25T19:31:37.220Z,96430.16
2023-02-25T19:33:39.988Z,96437.06
2023-02-25T19:35:44.165Z,96445.59
2023-02-25T19:37:46.788Z,96450.81
2023-02-25T19:39:49.425Z,96445.59
2023-02-25T19:41:53.316Z,96455.16
2023-02-25T19:43:55.904Z,96449.09
2023-02-25T19:45:58.496Z,96456.94
2023-02-25T19:48:01.145Z,96461.19
2023-02-25T19:50:05.368Z,96454.34
2023-02-25T19:52:07.938Z,96460.47
2023-02-25T19:54:10.597Z,96461.38
2023-02-25T19:56:13.142Z,96460.53
2023-02-25T19:58:17.119Z,96463.97
2023-02-25T20:00:21.426Z,96463.09
2023-02-25T20:02:24.534Z,96476.88
2023-02-25T20:04:27.137Z,96479.53
2023-02-25T20:06:33.046Z,96474.41
2023-02-25T20:08:37.025Z,96492.50
2023-02-25T20:10:43.676Z,96491.59
2023-02-25T20:12:47.444Z,96484.75
2023-02-25T20:14:51.392Z,96495.00
2023-02-25T20:16:53.939Z,96496.66
2023-02-25T20:18:57.523Z,96504.38
2023-02-25T20:21:00.162Z,96503.59
2023-02-25T20:23:02.747Z,96503.56
2023-02-25T20:25:06.103Z,96512.16
2023-02-25T20:27:08.713Z,96510.44
2023-02-25T20:29:11.363Z,96502.78
2023-02-25T20:31:17.472Z,96512.22
2023-02-25T20:33:20.063Z,96511.34
2023-02-25T20:35:26.061Z,96508.75
2023-02-25T20:37:32.942Z,96512.16
2023-02-25T20:39:51.754Z,96523.44
2023-02-25T20:41:55.079Z,96526.88
2023-02-25T20:43:57.864Z,96526.06
2023-02-25T20:46:00.705Z,96527.78
2023-02-25T20:48:04.936Z,96526.53
2023-02-25T20:50:09.068Z,96535.47
2023-02-25T20:52:14.312Z,96541.59
2023-02-25T20:54:18.490Z,96535.66
2023-02-25T20:56:24.635Z,96534.03
2023-02-25T20:58:27.411Z,96534.09
2023-02-25T21:00:29.981Z,96529.75
2023-02-25T21:02:32.528Z,96532.31
2023-02-25T21:04:36.451Z,96526.38
2023-02-25T21:06:40.329Z,96532.38
2023-02-25T21:08:42.874Z,96536.69
2023-02-25T21:10:45.721Z,96532.44
2023-02-25T21:12:48.257Z,96530.84
2023-02-25T21:14:52.224Z,96529.94
2023-02-25T21:16:55.067Z,96536.91
2023-02-25T21:18:58.148Z,96531.69
2023-02-25T21:21:09.134Z,96539.34
2023-02-25T21:23:11.757Z,96542.06
2023-02-25T21:25:14.317Z,96540.34
2023-02-25T21:27:16.974Z,96543.00
2023-02-25T21:29:19.495Z,96547.31
2023-02-25T21:31:22.278Z,96539.53
2023-02-25T21:33:24.880Z,96537.84
2023-02-25T21:35:27.454Z,96543.91
2023-02-25T21:37:31.396Z,96549.06
2023-02-25T21:39:34.119Z,96537.75
2023-02-25T21:41:38.007Z,96548.47
2023-02-25T21:43:41.572Z,96555.41
2023-02-25T21:45:53.634Z,96550.34
2023-02-25T21:47:56.520Z,96553.84
2023-02-25T21:49:59.151Z,96552.94
2023-02-25T21:52:01.834Z,96553.00
2023-02-25T21:54:05.970Z,96553.78
2023-02-25T21:56:10.563Z,96557.38
2023-02-25T21:58:13.484Z,96561.63
2023-02-25T22:00:16.413Z,96556.50
2023-02-25T22:02:19.041Z,96558.31
2023-02-25T22:04:21.623Z,96566.94
2023-02-25T22:06:25.030Z,96560.06
2023-02-25T22:08:27.812Z,96561.03
2023-02-25T22:10:35.581Z,96560.19
2023-02-25T22:12:38.135Z,96561.06
2023-02-25T22:14:40.665Z,96558.53
2023-02-25T22:16:43.237Z,96558.50
2023-02-25T22:18:46.611Z,96556.00
2023-02-25T22:20:49.444Z,96562.59
2023-02-25T22:22:52.030Z,96567.25
2023-02-25T22:24:55.789Z,96560.34
2023-02-25T22:26:59.675Z,96559.69
2023-02-25T22:29:04.394Z,96563.13
2023-02-25T22:31:10.128Z,96561.41
2023-02-25T22:33:12.739Z,96562.16
2023-02-25T22:35:15.606Z,96566.53
2023-02-25T22:37:18.234Z,96560.78
2023-02-25T22:39:20.788Z,96571.91
2023-02-25T22:41:24.831Z,96565.88
2023-02-25T22:43:29.704Z,96571.88
2023-02-25T22:45:32.308Z,96565.81
2023-02-25T22:47:34.919Z,96575.28
2023-02-25T22:49:37.539Z,96573.63
2023-02-25T22:51:42.126Z,96578.78
2023-02-25T22:53:44.755Z,96577.06
2023-02-25T22:55:47.338Z,96576.19
2023-02-25T22:57:49.906Z,96588.19
2023-02-25T22:59:53.820Z,96582.31
2023-02-25T23:01:59.181Z,96591.75
2023-02-25T23:04:01.851Z,96584.94
2023-02-25T23:06:05.832Z,96592.00
2023-02-25T23:08:08.417Z,96595.34
2023-02-25T23:10:11.897Z,96597.91
2023-02-25T23:12:14.505Z,96591.00
2023-02-25T23:14:17.086Z,96595.25
2023-02-25T23:16:23.967Z,96599.63
2023-02-25T23:18:26.717Z,96597.03
2023-02-25T23:20:29.277Z,96600.53
2023-02-25T23:22:33.727Z,96601.44
2023-02-25T23:24:37.530Z,96604.06
2023-02-25T23:26:42.147Z,96609.25
2023-02-25T23:28:44.958Z,96601.53
2023-02-25T23:30:47.548Z,96607.59
2023-02-25T23:32:51.534Z,96610.22
2023-02-25T23:34:54.120Z,96601.72
2023-02-25T23:36:57.695Z,96598.34
2023-02-25T23:39:02.175Z,96600.97
2023-02-25T23:41:04.898Z,96606.16
2023-02-25T23:43:07.484Z,96605.34
2023-02-25T23:45:12.731Z,96603.63
2023-02-25T23:47:15.814Z,96599.34
2023-02-25T23:49:19.756Z,96608.75
2023-02-25T23:51:22.884Z,96618.22
2023-02-25T23:53:25.545Z,96616.56
2023-02-25T23:55:29.120Z,96619.16
2023-02-25T23:57:31.679Z,96614.91
2023-02-25T23:59:34.381Z,96614.06
